Time;durP1;ratioP1;P1;durP2;ratioP2;P2;SDS_P1;SDS_P2;PMS_P1;PMS_P2;Temp;Humidity;BMP_temperature;BMP_pressure;BME280_temperature;BME280_humidity;BME280_pressure;Samples;Min_cycle;Max_cycle;Signal;HPM_P1;HPM_P2
2022/09/02 00:01:14;;;;;;;2.05;0.35;;;28.50;32.90;;;;;;5055618;28;20048;-62
2022/09/02 00:03:42;;;;;;;5.40;0.38;;;28.50;33.00;;;;;;5049776;28;20052;-61
2022/09/02 00:06:10;;;;;;;2.55;0.25;;;28.50;33.10;;;;;;5049667;28;20102;-62
2022/09/02 00:08:38;;;;;;;1.13;0.47;;;28.50;33.10;;;;;;5049248;28;20102;-62
2022/09/02 00:11:05;;;;;;;3.90;0.20;;;28.40;32.90;;;;;;5048689;28;20390;-61
2022/09/02 00:13:33;;;;;;;1.00;0.30;;;28.50;33.10;;;;;;5049610;28;20041;-61
2022/09/02 00:16:00;;;;;;;0.20;0.20;;;28.40;33.10;;;;;;5049819;28;20037;-61
2022/09/02 00:18:29;;;;;;;1.75;0.20;;;28.40;33.20;;;;;;5049454;28;20135;-62
2022/09/02 00:20:56;;;;;;;0.10;0.10;;;28.40;33.20;;;;;;5049615;28;20033;-61
2022/09/02 00:23:23;;;;;;;1.35;0.47;;;28.40;33.30;;;;;;5033498;28;20049;-60
2022/09/02 00:25:50;;;;;;;0.20;0.10;;;28.40;33.30;;;;;;5049207;28;20044;-61
2022/09/02 00:28:17;;;;;;;0.85;0.40;;;28.30;33.30;;;;;;5048859;28;20048;-61
2022/09/02 00:30:45;;;;;;;1.75;0.25;;;28.30;33.30;;;;;;5060802;28;20036;-61
2022/09/02 00:33:12;;;;;;;0.40;0.20;;;28.30;33.40;;;;;;5053496;28;20041;-60
2022/09/02 00:35:42;;;;;;;0.10;0.10;;;28.30;33.40;;;;;;5048979;28;20041;-62
2022/09/02 00:38:10;;;;;;;0.40;0.40;;;28.30;33.50;;;;;;5031600;28;20053;-62
2022/09/02 00:40:37;;;;;;;1.60;0.10;;;28.20;33.50;;;;;;5048734;28;20055;-62
2022/09/02 00:43:07;;;;;;;3.58;0.55;;;28.30;33.60;;;;;;5031307;28;20127;-62
2022/09/02 00:45:35;;;;;;;0.28;0.10;;;28.20;33.60;;;;;;5055989;28;20045;-61
2022/09/02 00:48:02;;;;;;;2.40;0.47;;;28.20;33.70;;;;;;5048725;28;20121;-62
2022/09/02 00:50:34;;;;;;;1.25;0.40;;;28.20;33.80;;;;;;5030632;28;20045;-62
2022/09/02 00:53:06;;;;;;;0.25;0.25;;;28.20;33.90;;;;;;5059771;28;20576;-62
2022/09/02 00:55:37;;;;;;;0.20;0.20;;;28.20;33.90;;;;;;5027098;28;20136;-61
2022/09/02 00:58:08;;;;;;;0.28;0.20;;;28.20;34.00;;;;;;5013710;28;20042;-62
2022/09/02 01:00:41;;;;;;;0.20;0.20;;;28.10;34.00;;;;;;5017246;28;20410;-62
2022/09/02 01:03:11;;;;;;;0.30;0.20;;;28.10;34.10;;;;;;5023336;28;20076;-62
2022/09/02 01:05:44;;;;;;;0.20;0.15;;;28.10;34.20;;;;;;5022973;28;20073;-62
2022/09/02 01:08:14;;;;;;;0.57;0.30;;;28.10;34.20;;;;;;5016154;28;20128;-62
2022/09/02 01:10:43;;;;;;;0.43;0.22;;;28.10;34.30;;;;;;5017101;28;20467;-62
2022/09/02 01:13:14;;;;;;;0.22;0.20;;;28.00;34.30;;;;;;5012794;28;20069;-62
2022/09/02 01:15:46;;;;;;;1.63;0.50;;;28.10;34.50;;;;;;5023419;28;20049;-61
2022/09/02 01:18:17;;;;;;;4.78;0.25;;;28.10;34.60;;;;;;5015923;28;20049;-62
2022/09/02 01:20:46;;;;;;;0.43;0.43;;;28.00;34.60;;;;;;5016962;28;20499;-61
2022/09/02 01:23:16;;;;;;;0.52;0.43;;;28.00;34.60;;;;;;5022831;28;20410;-61
2022/09/02 01:25:45;;;;;;;1.95;0.38;;;28.00;34.70;;;;;;5010995;28;20048;-61
2022/09/02 01:28:15;;;;;;;2.13;0.13;;;28.00;34.70;;;;;;5021260;28;20060;-61
2022/09/02 01:30:46;;;;;;;0.50;0.45;;;28.00;34.80;;;;;;5023021;28;20064;-62
2022/09/02 01:33:13;;;;;;;0.20;0.20;;;28.00;34.90;;;;;;5012735;28;20120;-62
2022/09/02 01:35:40;;;;;;;0.60;0.30;;;28.00;35.00;;;;;;5026873;28;20037;-62
2022/09/02 01:38:08;;;;;;;0.45;0.20;;;28.00;35.00;;;;;;5022590;28;20414;-62
2022/09/02 01:40:37;;;;;;;0.60;0.38;;;27.90;35.00;;;;;;5016785;28;20038;-62
2022/09/02 01:43:07;;;;;;;1.67;0.25;;;27.90;35.10;;;;;;5012325;28;20049;-62
2022/09/02 01:45:34;;;;;;;0.65;0.20;;;27.90;35.10;;;;;;5023209;28;20077;-62
2022/09/02 01:48:02;;;;;;;1.77;0.10;;;27.90;35.20;;;;;;5012285;28;20502;-62
2022/09/02 01:50:30;;;;;;;1.65;0.30;;;27.90;35.20;;;;;;5011064;28;20038;-60
2022/09/02 01:53:00;;;;;;;0.55;0.22;;;27.90;35.20;;;;;;5020680;28;20045;-61
2022/09/02 01:55:27;;;;;;;1.13;0.30;;;27.90;35.30;;;;;;5013337;28;20864;-62
2022/09/02 01:57:57;;;;;;;2.38;0.28;;;27.90;35.30;;;;;;5007093;28;20049;-62
2022/09/02 02:00:26;;;;;;;3.05;0.20;;;27.90;35.40;;;;;;4996141;28;20053;-62
2022/09/02 02:02:53;;;;;;;1.20;0.20;;;27.80;35.40;;;;;;4998425;28;20049;-61
2022/09/02 02:05:21;;;;;;;2.67;0.40;;;27.80;35.30;;;;;;5006553;28;20050;-62
2022/09/02 02:07:50;;;;;;;2.13;1.17;;;27.80;35.30;;;;;;5006004;28;20060;-61
2022/09/02 02:10:20;;;;;;;0.25;0.17;;;27.80;35.30;;;;;;5006722;28;20046;-61
2022/09/02 02:12:48;;;;;;;1.08;0.30;;;27.80;35.40;;;;;;5008152;28;20057;-61
2022/09/02 02:15:20;;;;;;;0.50;0.10;;;27.80;35.50;;;;;;5008233;28;20038;-61
2022/09/02 02:17:49;;;;;;;2.25;0.20;;;27.80;35.40;;;;;;5005326;28;20403;-61
2022/09/02 02:20:17;;;;;;;2.40;0.20;;;27.80;35.40;;;;;;5007419;28;20482;-61
2022/09/02 02:22:45;;;;;;;0.20;0.20;;;27.80;35.40;;;;;;5003911;28;20061;-61
2022/09/02 02:25:14;;;;;;;0.95;0.20;;;27.80;35.30;;;;;;5008236;28;20038;-61
2022/09/02 02:27:42;;;;;;;5.47;0.15;;;27.80;35.30;;;;;;5006094;28;20044;-62
2022/09/02 02:30:11;;;;;;;0.30;0.13;;;27.80;35.40;;;;;;5007435;28;20038;-61
2022/09/02 02:32:40;;;;;;;1.35;0.10;;;27.70;35.30;;;;;;5005682;28;20082;-62
2022/09/02 02:35:09;;;;;;;1.10;0.35;;;27.70;35.40;;;;;;5006417;28;20092;-61
2022/09/02 02:37:37;;;;;;;3.13;0.10;;;27.70;35.40;;;;;;5007046;28;20053;-61
2022/09/02 02:40:05;;;;;;;0.50;0.30;;;27.70;35.40;;;;;;5005633;28;20160;-62
2022/09/02 02:42:32;;;;;;;0.65;0.30;;;27.70;35.50;;;;;;5007593;28;20463;-63
2022/09/02 02:44:59;;;;;;;1.67;0.45;;;27.70;35.50;;;;;;5005344;28;20042;-62
2022/09/02 02:47:26;;;;;;;1.00;0.20;;;27.70;35.60;;;;;;5006181;28;20495;-62
2022/09/02 02:49:55;;;;;;;0.38;0.20;;;27.70;35.60;;;;;;5008476;28;20141;-62
2022/09/02 02:52:22;;;;;;;0.63;0.20;;;27.70;35.70;;;;;;5013935;28;20050;-61
2022/09/02 02:54:49;;;;;;;3.80;0.50;;;27.70;35.70;;;;;;5023600;28;20066;-62
2022/09/02 02:57:16;;;;;;;0.50;0.30;;;27.70;35.70;;;;;;5033125;28;20124;-62
2022/09/02 02:59:44;;;;;;;0.30;0.28;;;27.70;35.80;;;;;;5022822;28;20051;-62
2022/09/02 03:02:12;;;;;;;0.55;0.30;;;27.60;35.80;;;;;;5029462;28;20113;-62
2022/09/02 03:04:40;;;;;;;1.13;0.40;;;27.60;35.80;;;;;;5050075;28;20044;-61
2022/09/02 03:07:08;;;;;;;1.77;0.28;;;27.60;36.50;;;;;;5031615;28;20596;-62
2022/09/02 03:09:36;;;;;;;0.80;0.30;;;27.60;35.90;;;;;;5054363;28;20041;-61
2022/09/02 03:12:03;;;;;;;0.35;0.30;;;27.60;36.00;;;;;;5033338;28;20540;-63
2022/09/02 03:14:31;;;;;;;1.15;1.02;;;27.60;36.20;;;;;;5032690;28;20053;-60
2022/09/02 03:16:59;;;;;;;2.05;0.90;;;27.60;36.30;;;;;;5032954;28;20044;-61
2022/09/02 03:19:26;;;;;;;0.50;0.45;;;27.60;36.50;;;;;;5032627;28;20452;-61
2022/09/02 03:21:53;;;;;;;1.45;0.90;;;27.60;36.70;;;;;;5032961;28;20041;-60
2022/09/02 03:24:22;;;;;;;2.67;0.73;;;27.60;37.00;;;;;;5032548;28;20073;-62
2022/09/02 03:26:49;;;;;;;6.22;1.30;;;27.60;37.40;;;;;;5032465;28;20047;-61
2022/09/02 03:29:17;;;;;;;3.72;1.23;;;27.50;37.60;;;;;;5038891;28;20110;-61
2022/09/02 03:31:45;;;;;;;4.35;1.00;;;27.50;37.90;;;;;;5066783;28;20049;-61
2022/09/02 03:34:12;;;;;;;6.07;0.88;;;27.50;38.10;;;;;;5050334;28;20068;-61
2022/09/02 03:36:42;;;;;;;2.28;0.90;;;27.50;38.40;;;;;;5031877;28;20049;-61
2022/09/02 03:39:11;;;;;;;0.80;0.80;;;27.50;38.70;;;;;;5050247;28;20052;-61
2022/09/02 03:41:42;;;;;;;1.33;1.20;;;27.50;38.90;;;;;;5036806;28;20118;-61
2022/09/02 03:44:12;;;;;;;3.05;0.90;;;27.50;39.10;;;;;;5044709;28;20469;-61
2022/09/02 03:46:40;;;;;;;2.72;1.35;;;27.50;39.30;;;;;;5032270;28;20049;-61
2022/09/02 03:49:07;;;;;;;2.70;0.95;;;27.50;39.40;;;;;;5034514;28;20108;-60
2022/09/02 03:51:35;;;;;;;1.95;1.17;;;27.40;39.40;;;;;;5049826;28;20045;-61
2022/09/02 03:54:02;;;;;;;1.10;1.00;;;27.40;39.60;;;;;;5047029;28;20109;-61
2022/09/02 03:56:30;;;;;;;2.17;0.70;;;27.40;39.60;;;;;;5038779;28;20049;-61
2022/09/02 03:59:00;;;;;;;1.65;1.30;;;27.40;39.70;;;;;;5034566;28;20910;-61
2022/09/02 04:01:28;;;;;;;3.88;1.23;;;27.40;39.80;;;;;;5068000;28;20117;-61
2022/09/02 04:03:55;;;;;;;1.63;1.00;;;27.40;39.80;;;;;;5055449;28;20055;-61
2022/09/02 04:06:24;;;;;;;1.10;1.10;;;27.40;39.80;;;;;;5033876;28;20053;-61
2022/09/02 04:08:52;;;;;;;4.70;1.42;;;27.40;39.90;;;;;;5040516;28;20124;-60
2022/09/02 04:11:22;;;;;;;2.58;0.80;;;27.40;39.90;;;;;;5031503;28;20044;-60
2022/09/02 04:13:52;;;;;;;2.45;0.95;;;27.40;40.00;;;;;;5031606;28;20037;-61
2022/09/02 04:16:27;;;;;;;5.18;1.10;;;27.40;40.00;;;;;;5033056;28;20037;-61
2022/09/02 04:18:58;;;;;;;1.88;0.95;;;27.30;40.00;;;;;;5053653;28;20033;-61
2022/09/02 04:21:27;;;;;;;1.48;0.70;;;27.30;40.20;;;;;;5031650;28;20050;-62
2022/09/02 04:23:55;;;;;;;2.72;0.70;;;27.30;40.30;;;;;;5031790;28;20041;-60
2022/09/02 04:26:23;;;;;;;3.35;1.25;;;27.30;40.20;;;;;;5057293;28;20126;-61
2022/09/02 04:28:53;;;;;;;3.30;1.02;;;27.20;40.10;;;;;;5031995;28;20163;-60
2022/09/02 04:31:28;;;;;;;3.72;1.15;;;27.20;40.10;;;;;;5037477;28;20060;-60
2022/09/02 04:33:56;;;;;;;3.20;1.75;;;27.20;40.00;;;;;;5031040;28;20037;-60
2022/09/02 04:36:24;;;;;;;5.63;2.65;;;27.20;40.00;;;;;;5031427;28;20029;-60
2022/09/02 04:38:55;;;;;;;4.55;2.85;;;27.20;40.10;;;;;;5030705;28;20045;-60
2022/09/02 04:41:27;;;;;;;8.90;3.80;;;27.10;40.10;;;;;;5036507;28;20126;-60
2022/09/02 04:43:59;;;;;;;8.27;3.38;;;27.10;40.20;;;;;;5030962;28;20770;-60
2022/09/02 04:46:31;;;;;;;6.38;3.85;;;27.10;40.40;;;;;;5030797;28;20058;-60
2022/09/02 04:48:59;;;;;;;6.05;1.70;;;27.10;41.20;;;;;;5030329;28;20064;-60
2022/09/02 04:51:27;;;;;;;3.92;2.75;;;27.10;42.10;;;;;;5030094;28;20037;-60
2022/09/02 04:53:58;;;;;;;9.00;3.10;;;27.00;43.00;;;;;;5031151;28;20040;-60
2022/09/02 04:56:28;;;;;;;6.22;2.05;;;27.10;43.30;;;;;;5030618;28;20531;-60
2022/09/02 04:58:58;;;;;;;4.82;1.63;;;27.00;43.40;;;;;;5030694;28;20125;-61
2022/09/02 05:01:27;;;;;;;1.98;1.27;;;27.00;43.70;;;;;;5048530;28;20041;-59
2022/09/02 05:03:58;;;;;;;2.47;2.22;;;27.00;43.70;;;;;;5035499;28;20512;-59
2022/09/02 05:06:31;;;;;;;2.33;1.77;;;27.00;44.10;;;;;;5040073;28;20607;-60
2022/09/02 05:09:00;;;;;;;1.52;1.42;;;27.00;44.20;;;;;;5030267;28;20053;-60
2022/09/02 05:11:32;;;;;;;1.30;0.52;;;27.00;44.20;;;;;;5033302;28;20037;-61
2022/09/02 05:14:02;;;;;;;1.65;1.55;;;27.00;44.30;;;;;;5043979;28;20049;-61
2022/09/02 05:16:31;;;;;;;2.05;1.73;;;27.00;44.70;;;;;;5030493;28;20047;-61
2022/09/02 05:19:00;;;;;;;2.67;1.55;;;27.00;44.90;;;;;;5030079;28;20044;-61
2022/09/02 05:21:40;;;;;;;2.90;1.20;;;27.00;45.00;;;;;;5029314;28;20045;-61
2022/09/02 05:24:07;;;;;;;6.75;1.50;;;27.00;45.10;;;;;;5030206;28;20543;-60
2022/09/02 05:26:36;;;;;;;3.40;1.33;;;26.90;45.20;;;;;;5029761;28;20049;-60
2022/09/02 05:29:05;;;;;;;2.63;1.20;;;26.90;45.10;;;;;;5030111;28;20913;-60
2022/09/02 05:31:33;;;;;;;1.65;0.98;;;26.90;45.20;;;;;;5036129;28;20123;-60
2022/09/02 05:34:02;;;;;;;0.90;0.70;;;27.00;45.40;;;;;;5034461;28;20048;-60
2022/09/02 05:36:31;;;;;;;4.03;1.52;;;27.00;45.40;;;;;;5033263;28;20114;-59
2022/09/02 05:38:59;;;;;;;1.35;1.25;;;26.90;45.40;;;;;;5037773;28;20068;-61
2022/09/02 05:41:27;;;;;;;3.33;1.23;;;26.90;45.40;;;;;;5050166;28;20120;-61
2022/09/02 05:44:01;;;;;;;5.30;4.05;;;26.90;45.40;;;;;;5032705;28;20529;-61
2022/09/02 05:46:29;;;;;;;11.90;2.83;;;26.90;45.40;;;;;;5029623;28;20149;-61
2022/09/02 05:49:06;;;;;;;0.98;0.82;;;26.90;45.90;;;;;;5028972;28;20063;-62
2022/09/02 05:51:48;;;;;;;2.45;1.02;;;26.90;45.20;;;;;;5029068;28;20045;-62
2022/09/02 05:54:20;;;;;;;4.03;0.75;;;26.90;45.00;;;;;;5034717;28;20399;-62
2022/09/02 05:56:53;;;;;;;2.72;1.67;;;26.90;45.00;;;;;;5047173;28;20044;-62
2022/09/02 05:59:21;;;;;;;6.95;1.23;;;26.90;44.90;;;;;;5029348;28;20044;-61
2022/09/02 06:01:49;;;;;;;3.53;1.25;;;26.90;44.70;;;;;;5032053;28;20043;-61
2022/09/02 06:04:17;;;;;;;3.60;1.15;;;26.80;44.50;;;;;;5031744;28;20585;-61
2022/09/02 06:06:46;;;;;;;0.63;0.50;;;26.90;44.50;;;;;;5041491;28;20147;-61
2022/09/02 06:09:18;;;;;;;6.32;1.00;;;26.80;44.40;;;;;;5033996;28;20094;-61
2022/09/02 06:11:48;;;;;;;2.65;1.20;;;26.80;44.50;;;;;;5040031;28;20566;-61
2022/09/02 06:14:20;;;;;;;5.45;0.70;;;26.70;44.40;;;;;;5040070;28;20115;-61
2022/09/02 06:16:49;;;;;;;4.28;1.20;;;26.70;44.40;;;;;;5034584;28;20120;-62
2022/09/02 06:19:24;;;;;;;6.25;0.90;;;26.70;44.40;;;;;;5037573;28;20049;-62
2022/09/02 06:21:54;;;;;;;4.47;0.68;;;26.70;44.50;;;;;;5039084;28;20124;-62
2022/09/02 06:24:25;;;;;;;4.38;1.52;;;26.70;44.60;;;;;;5037214;28;20124;-61
2022/09/02 06:26:53;;;;;;;2.60;0.70;;;26.60;44.50;;;;;;5034290;28;20098;-61
2022/09/02 06:29:21;;;;;;;0.93;0.65;;;26.60;44.50;;;;;;5039520;28;20059;-60
2022/09/02 06:31:49;;;;;;;0.60;0.60;;;26.60;44.50;;;;;;5047869;28;20068;-61
2022/09/02 06:34:21;;;;;;;2.28;0.60;;;26.60;44.60;;;;;;5030787;28;20029;-60
2022/09/02 06:36:50;;;;;;;4.30;0.93;;;26.50;44.60;;;;;;5029807;28;20410;-60
2022/09/02 06:39:24;;;;;;;0.60;0.60;;;26.50;44.60;;;;;;5030425;28;20041;-61
2022/09/02 06:41:52;;;;;;;3.78;0.77;;;26.50;44.50;;;;;;5042710;28;20049;-61
2022/09/02 06:44:21;;;;;;;4.07;0.88;;;26.50;44.50;;;;;;5037186;28;20129;-61
2022/09/02 06:46:54;;;;;;;1.13;1.05;;;26.40;44.40;;;;;;5019505;28;20043;-61
2022/09/02 06:49:22;;;;;;;2.05;0.75;;;26.40;44.40;;;;;;5037584;28;20071;-61
2022/09/02 06:51:51;;;;;;;1.02;0.88;;;26.40;44.40;;;;;;5032720;28;20087;-60
2022/09/02 06:54:22;;;;;;;5.20;1.25;;;26.40;44.30;;;;;;5036484;28;20481;-60
2022/09/02 06:56:54;;;;;;;0.73;0.60;;;26.40;44.30;;;;;;5037731;28;20041;-60
2022/09/02 06:59:25;;;;;;;3.15;0.90;;;26.40;44.20;;;;;;5035500;28;20740;-61
2022/09/02 07:01:56;;;;;;;4.35;1.55;;;26.40;44.20;;;;;;5043878;28;20033;-61
2022/09/02 07:07:11;;;;;;;;;;;26.40;44.20;;;;;;5033476;28;20041;-60
2022/09/02 07:09:45;;;;;;;3.75;0.65;;;26.30;44.10;;;;;;5035324;28;19931;-60
2022/09/02 07:12:18;;;;;;;2.00;0.60;;;26.30;44.30;;;;;;5035830;28;20037;-61
2022/09/02 07:14:53;;;;;;;2.40;0.80;;;26.30;44.30;;;;;;5042415;28;20037;-59
2022/09/02 07:17:26;;;;;;;4.53;0.60;;;26.30;44.30;;;;;;5037432;28;20049;-61
2022/09/02 07:19:59;;;;;;;3.42;1.10;;;26.30;44.20;;;;;;5029146;28;20094;-61
2022/09/02 07:22:28;;;;;;;5.35;0.80;;;26.30;44.10;;;;;;5040672;28;20523;-61
2022/09/02 07:24:57;;;;;;;6.13;1.30;;;26.30;44.00;;;;;;5043736;28;20040;-60
2022/09/02 07:27:26;;;;;;;2.47;0.45;;;26.30;43.90;;;;;;5043153;28;20513;-60
2022/09/02 07:29:56;;;;;;;1.73;0.70;;;26.30;43.80;;;;;;5032524;28;20412;-61
2022/09/02 07:32:24;;;;;;;2.42;0.47;;;26.30;43.70;;;;;;5054947;28;20041;-61
2022/09/02 07:34:51;;;;;;;2.63;0.70;;;26.30;43.70;;;;;;5049367;28;20132;-61
2022/09/02 07:37:18;;;;;;;2.28;0.95;;;26.30;43.70;;;;;;5041819;28;20037;-60
2022/09/02 07:39:45;;;;;;;4.45;1.00;;;26.30;43.70;;;;;;5039295;28;20075;-61
2022/09/02 07:42:18;;;;;;;2.40;0.65;;;26.30;43.50;;;;;;5035371;28;20048;-62
2022/09/02 07:44:46;;;;;;;1.58;0.60;;;26.30;43.40;;;;;;5043900;28;20064;-60
2022/09/02 07:47:13;;;;;;;0.73;0.50;;;26.30;43.30;;;;;;5036270;28;20095;-62
2022/09/02 07:49:44;;;;;;;1.67;0.30;;;26.30;43.20;;;;;;5038307;28;20047;-61
2022/09/02 07:52:12;;;;;;;1.00;0.65;;;26.30;43.20;;;;;;5044304;28;20489;-67
2022/09/02 07:54:39;;;;;;;2.97;0.50;;;26.30;43.20;;;;;;5033509;28;20052;-64
2022/09/02 07:57:07;;;;;;;0.88;0.60;;;26.30;43.20;;;;;;5035478;28;20094;-62
2022/09/02 07:59:36;;;;;;;6.45;0.88;;;26.30;43.10;;;;;;5033863;28;20121;-65
2022/09/02 08:02:04;;;;;;;0.65;0.65;;;26.30;43.10;;;;;;5044060;28;20699;-61
2022/09/02 08:04:31;;;;;;;3.33;0.30;;;26.40;43.10;;;;;;5051759;28;20045;-71
2022/09/02 08:07:02;;;;;;;4.90;0.47;;;26.40;43.00;;;;;;5041879;28;20041;-70
2022/09/02 08:09:29;;;;;;;1.90;0.30;;;26.40;42.80;;;;;;5058822;28;20048;-69
2022/09/02 08:11:56;;;;;;;1.10;0.80;;;26.50;43.00;;;;;;5049765;28;20068;-69
2022/09/02 08:14:28;;;;;;;2.25;0.57;;;26.60;42.90;;;;;;5050416;28;20102;-67
2022/09/02 08:16:57;;;;;;;5.30;0.77;;;26.60;42.80;;;;;;5049489;28;20061;-67
2022/09/02 08:19:26;;;;;;;3.03;0.90;;;26.60;42.60;;;;;;5048939;28;20064;-67
2022/09/02 08:21:54;;;;;;;1.48;0.57;;;26.70;42.30;;;;;;5049704;28;20129;-66
2022/09/02 08:24:21;;;;;;;1.95;1.08;;;26.70;42.10;;;;;;5048678;28;20080;-66
2022/09/02 08:26:48;;;;;;;3.08;0.50;;;26.80;41.90;;;;;;5049128;28;20131;-65
2022/09/02 08:29:15;;;;;;;1.50;0.65;;;26.80;41.90;;;;;;5049608;28;20133;-65
2022/09/02 08:31:42;;;;;;;6.18;0.88;;;26.80;42.10;;;;;;5068869;28;20045;-65
2022/09/02 08:34:10;;;;;;;10.57;0.77;;;26.90;42.60;;;;;;5063299;28;20063;-62
2022/09/02 08:36:38;;;;;;;7.80;0.73;;;26.90;43.20;;;;;;5053879;28;20071;-61
2022/09/02 08:39:05;;;;;;;5.13;1.48;;;26.90;43.80;;;;;;5051102;28;20090;-63
2022/09/02 08:41:42;;;;;;;3.28;0.77;;;27.00;44.20;;;;;;5054907;28;20051;-63
2022/09/02 08:44:12;;;;;;;1.98;0.93;;;27.00;44.70;;;;;;5049188;28;20846;-60
2022/09/02 08:46:40;;;;;;;4.43;1.95;;;27.00;45.00;;;;;;5049747;28;20065;-62
2022/09/02 08:49:13;;;;;;;5.05;0.68;;;27.10;45.10;;;;;;5049105;28;20052;-64
2022/09/02 08:51:47;;;;;;;2.78;1.30;;;27.10;45.50;;;;;;5048603;28;20072;-65
2022/09/02 08:54:22;;;;;;;18.42;1.70;;;27.10;46.00;;;;;;5067234;28;20050;-64
2022/09/02 08:56:50;;;;;;;8.80;1.55;;;27.20;46.40;;;;;;5050409;28;20052;-70
2022/09/02 08:59:20;;;;;;;8.93;1.50;;;27.20;46.40;;;;;;5049531;28;20044;-69
2022/09/02 09:01:54;;;;;;;11.88;1.58;;;27.30;45.80;;;;;;5033260;28;20060;-67
2022/09/02 09:04:30;;;;;;;1.75;1.02;;;27.40;45.70;;;;;;5056390;28;20040;-59
2022/09/02 09:07:16;;;;;;;4.30;0.70;;;27.40;45.60;;;;;;5048530;28;20405;-60
2022/09/02 09:09:58;;;;;;;5.65;1.02;;;27.40;45.40;;;;;;5049037;28;20106;-67
2022/09/02 09:12:36;;;;;;;3.78;1.17;;;27.50;45.60;;;;;;5051874;28;20108;-66
2022/09/02 09:15:08;;;;;;;9.93;1.08;;;27.50;45.50;;;;;;5058364;28;20056;-65
2022/09/02 09:17:44;;;;;;;7.82;0.82;;;27.50;45.80;;;;;;5064780;28;20064;-65
2022/09/02 09:20:18;;;;;;;6.65;1.80;;;27.60;45.70;;;;;;5059300;28;20033;-62
2022/09/02 09:22:48;;;;;;;3.60;1.23;;;27.60;45.10;;;;;;5058837;28;20097;-64
2022/09/02 09:25:16;;;;;;;3.58;0.70;;;27.60;45.00;;;;;;5055615;28;20076;-64
2022/09/02 09:27:45;;;;;;;4.07;1.55;;;27.60;44.30;;;;;;5054540;28;20037;-65
2022/09/02 09:30:13;;;;;;;3.58;0.88;;;27.60;44.70;;;;;;5044655;28;20045;-65
2022/09/02 09:32:45;;;;;;;2.95;1.13;;;27.60;44.30;;;;;;5051152;28;20044;-65
2022/09/02 09:35:14;;;;;;;5.28;1.25;;;27.60;44.40;;;;;;5045072;28;20037;-65
2022/09/02 09:37:43;;;;;;;5.40;1.20;;;27.60;44.20;;;;;;5046340;28;20512;-65
2022/09/02 09:40:31;;;;;;;4.15;1.25;;;27.60;44.10;;;;;;5047902;28;20084;-60
2022/09/02 09:43:12;;;;;;;0.90;0.85;;;27.60;43.90;;;;;;5054563;28;20052;-61
2022/09/02 09:45:41;;;;;;;3.15;0.93;;;27.60;44.00;;;;;;5047877;28;20057;-64
2022/09/02 09:48:18;;;;;;;4.25;1.20;;;27.60;43.80;;;;;;5056068;28;20037;-63
2022/09/02 09:50:48;;;;;;;4.97;1.67;;;27.60;43.80;;;;;;5056039;28;20082;-63
2022/09/02 09:53:18;;;;;;;2.42;0.57;;;27.70;43.90;;;;;;5061260;28;20516;-63
2022/09/02 09:55:55;;;;;;;1.90;0.60;;;27.70;43.70;;;;;;5047891;28;20573;-62
2022/09/02 09:58:23;;;;;;;1.00;0.70;;;27.70;43.80;;;;;;5050832;28;20037;-63
2022/09/02 10:00:55;;;;;;;2.60;0.77;;;27.70;43.40;;;;;;5030144;28;20068;-63
2022/09/02 10:03:25;;;;;;;1.73;0.80;;;27.70;43.30;;;;;;5048125;28;20037;-63
2022/09/02 10:05:56;;;;;;;4.80;1.30;;;27.80;43.70;;;;;;5047961;28;20140;-65
2022/09/02 10:08:25;;;;;;;1.30;1.20;;;27.90;43.80;;;;;;5048502;28;20095;-65
2022/09/02 10:10:58;;;;;;;2.13;1.30;;;27.90;43.40;;;;;;5050341;28;20060;-63
2022/09/02 10:13:28;;;;;;;7.00;1.10;;;27.90;43.40;;;;;;5034705;28;20076;-64
2022/09/02 10:16:20;;;;;;;5.18;1.50;;;27.90;43.40;;;;;;5066192;28;20090;-65
2022/09/02 10:18:53;;;;;;;7.07;1.38;;;28.00;43.30;;;;;;5040673;28;20033;-63
2022/09/02 10:21:35;;;;;;;3.95;2.17;;;28.00;43.40;;;;;;5054128;28;20049;-63
2022/09/02 10:24:17;;;;;;;1.17;1.08;;;28.00;43.20;;;;;;5055483;28;20527;-66
2022/09/02 10:26:49;;;;;;;4.53;1.20;;;28.00;43.10;;;;;;5050927;28;20120;-66
2022/09/02 10:29:42;;;;;;;4.75;1.05;;;28.10;42.60;;;;;;5051186;28;20044;-66
2022/09/02 10:32:26;;;;;;;1.48;0.88;;;28.10;42.30;;;;;;5051651;28;20051;-66
2022/09/02 10:35:07;;;;;;;1.88;1.77;;;28.10;42.50;;;;;;5039566;28;20641;-68
2022/09/02 10:37:48;;;;;;;3.08;1.30;;;28.10;42.30;;;;;;5032864;28;20699;-64
2022/09/02 10:40:18;;;;;;;4.05;0.98;;;28.10;42.20;;;;;;5050238;28;20121;-68
2022/09/02 10:43:00;;;;;;;5.53;0.80;;;28.10;42.30;;;;;;5058982;28;20120;-69
2022/09/02 10:45:34;;;;;;;8.65;1.45;;;28.20;42.70;;;;;;5057380;28;20052;-66
2022/09/02 10:48:14;;;;;;;2.85;1.60;;;28.10;42.50;;;;;;5035153;28;20069;-63
2022/09/02 10:50:46;;;;;;;3.42;1.08;;;28.20;42.70;;;;;;5049497;28;20041;-63
2022/09/02 10:53:29;;;;;;;1.08;0.95;;;28.20;43.00;;;;;;5047552;28;20045;-66
2022/09/02 10:56:00;;;;;;;6.82;2.25;;;28.20;42.90;;;;;;5042915;28;20053;-67
2022/09/02 10:58:39;;;;;;;6.55;1.48;;;28.10;42.80;;;;;;5053326;28;20095;-68
2022/09/02 11:01:09;;;;;;;1.73;1.48;;;28.20;42.50;;;;;;5048793;28;20132;-67
2022/09/02 11:03:42;;;;;;;1.52;1.42;;;28.10;42.50;;;;;;5048713;28;20040;-63
2022/09/02 11:06:14;;;;;;;2.60;1.38;;;28.10;42.60;;;;;;5028482;28;20080;-61
2022/09/02 11:08:47;;;;;;;3.67;1.35;;;28.10;42.70;;;;;;5046972;28;20075;-60
2022/09/02 11:11:20;;;;;;;1.95;0.93;;;28.10;42.70;;;;;;5050213;28;20122;-60
2022/09/02 11:14:00;;;;;;;4.40;1.25;;;28.10;42.70;;;;;;5048910;28;20473;-60
2022/09/02 11:16:32;;;;;;;6.22;0.90;;;28.10;42.70;;;;;;5052257;28;20049;-60
2022/09/02 11:19:06;;;;;;;2.55;1.30;;;28.10;43.10;;;;;;5047254;28;20441;-61
2022/09/02 11:21:49;;;;;;;3.80;1.10;;;28.10;43.10;;;;;;5047442;28;20045;-60
2022/09/02 11:24:23;;;;;;;2.08;1.83;;;28.10;43.30;;;;;;5033972;28;20087;-61
2022/09/02 11:26:56;;;;;;;5.22;1.80;;;28.10;43.50;;;;;;5049163;28;20036;-60
2022/09/02 11:29:33;;;;;;;4.13;1.50;;;28.10;43.80;;;;;;5048967;28;20144;-60
2022/09/02 11:32:09;;;;;;;4.65;2.60;;;28.10;44.00;;;;;;5050704;28;20559;-61
2022/09/02 11:34:41;;;;;;;5.60;1.90;;;28.10;44.50;;;;;;5050402;28;20037;-59
2022/09/02 11:37:10;;;;;;;1.77;1.67;;;28.00;44.90;;;;;;5049266;28;20503;-61
2022/09/02 11:39:44;;;;;;;2.95;2.10;;;27.90;44.90;;;;;;5054815;28;20037;-62
2022/09/02 11:42:24;;;;;;;3.55;2.88;;;27.90;45.30;;;;;;5053711;28;20173;-61
2022/09/02 11:45:36;;;;;;;4.47;2.45;;;27.80;45.20;;;;;;5056721;28;20041;-61
2022/09/02 11:48:32;;;;;;;2.85;2.20;;;27.70;45.60;;;;;;4994660;28;20049;-61
2022/09/02 11:51:12;;;;;;;2.97;2.77;;;27.70;46.20;;;;;;4996062;28;20065;-61
2022/09/02 11:53:41;;;;;;;10.85;2.67;;;27.60;46.50;;;;;;4997454;28;20077;-62
2022/09/02 11:56:14;;;;;;;3.25;2.95;;;27.50;46.80;;;;;;5007893;28;20069;-61
2022/09/02 11:58:44;;;;;;;7.78;2.53;;;27.50;47.00;;;;;;4989985;28;20562;-61
2022/09/02 12:01:26;;;;;;;3.03;2.72;;;27.50;47.10;;;;;;4999092;28;20042;-61
2022/09/02 12:03:57;;;;;;;5.63;3.17;;;27.50;47.10;;;;;;4974615;28;20302;-61
2022/09/02 12:06:25;;;;;;;2.47;2.22;;;27.50;46.70;;;;;;4988072;28;20137;-61
2022/09/02 12:09:10;;;;;;;7.90;2.60;;;27.50;46.50;;;;;;5001090;28;20054;-61
2022/09/02 12:11:51;;;;;;;6.82;3.33;;;27.50;46.00;;;;;;5007544;28;20057;-62
2022/09/02 12:15:06;;;;;;;5.85;3.75;;;27.50;45.80;;;;;;5008174;28;20048;-62
2022/09/02 12:17:37;;;;;;;5.20;3.28;;;27.60;45.90;;;;;;5007017;28;20747;-62
2022/09/02 12:20:06;;;;;;;7.03;2.80;;;27.50;45.50;;;;;;4995449;28;20588;-61
2022/09/02 12:22:37;;;;;;;6.13;1.90;;;27.50;45.10;;;;;;5007637;28;20052;-61
2022/09/02 12:25:20;;;;;;;5.05;3.08;;;27.50;45.00;;;;;;5043971;28;20525;-61
2022/09/02 12:27:49;;;;;;;3.08;1.70;;;27.50;44.80;;;;;;5040272;28;20041;-62
2022/09/02 12:30:54;;;;;;;1.80;1.65;;;27.50;45.10;;;;;;5061884;28;20071;-62
2022/09/02 12:33:32;;;;;;;5.72;1.25;;;27.50;44.60;;;;;;5055286;28;20045;-62
2022/09/02 12:36:00;;;;;;;6.13;1.40;;;27.50;44.70;;;;;;5056736;28;20037;-62
2022/09/02 12:38:35;;;;;;;3.88;1.45;;;27.50;45.00;;;;;;5051401;28;20509;-62
2022/09/02 12:41:20;;;;;;;3.33;1.27;;;27.50;44.60;;;;;;5049390;28;20064;-61
2022/09/02 12:44:08;;;;;;;2.78;1.30;;;27.50;44.70;;;;;;5063434;28;20041;-61
2022/09/02 12:46:50;;;;;;;4.32;1.15;;;27.50;44.70;;;;;;5031077;28;20049;-61
2022/09/02 12:49:33;;;;;;;5.07;1.20;;;27.50;44.70;;;;;;5049660;28;20125;-61
2022/09/02 12:52:02;;;;;;;2.53;0.68;;;27.50;45.00;;;;;;5048160;28;20079;-58
2022/09/02 12:54:37;;;;;;;2.72;0.75;;;27.40;44.70;;;;;;5057184;28;20040;-59
2022/09/02 12:57:04;;;;;;;6.43;0.90;;;27.40;44.50;;;;;;5048100;28;20252;-54
2022/09/02 12:59:33;;;;;;;3.33;0.73;;;27.40;45.20;;;;;;5049932;28;20033;-61
2022/09/02 13:02:34;;;;;;;2.05;0.75;;;27.50;45.60;;;;;;5048987;28;20036;-59
2022/09/02 13:05:15;;;;;;;3.83;0.52;;;27.60;45.70;;;;;;5030308;28;20053;-62
2022/09/02 13:08:20;;;;;;;6.28;1.02;;;27.70;45.70;;;;;;5053413;28;20033;-61
2022/09/02 13:10:56;;;;;;;2.25;1.30;;;27.80;45.70;;;;;;5037607;28;20116;-60
2022/09/02 13:13:50;;;;;;;6.20;1.10;;;27.90;45.60;;;;;;5050833;28;20052;-61